createdAt,value
2022-09-11T00:00:40.520Z,50.89
2022-09-11T00:03:06.960Z,50.89
2022-09-11T00:05:37.339Z,50.88
2022-09-11T00:08:03.760Z,50.90
2022-09-11T00:10:30.166Z,50.87
2022-09-11T00:12:56.685Z,50.88
2022-09-11T00:15:23.094Z,50.88
2022-09-11T00:17:49.478Z,50.88
2022-09-11T00:20:16.024Z,50.91
2022-09-11T00:22:42.379Z,50.88
2022-09-11T00:25:09.072Z,50.90
2022-09-11T00:27:35.504Z,50.89
2022-09-11T00:30:01.954Z,50.89
2022-09-11T00:32:28.310Z,50.89
2022-09-11T00:34:54.732Z,50.88
2022-09-11T00:37:21.116Z,50.92
2022-09-11T00:39:47.882Z,50.89
2022-09-11T00:42:14.327Z,50.89
2022-09-11T00:44:40.828Z,50.90
2022-09-11T00:47:09.090Z,50.89
2022-09-11T00:49:48.676Z,50.89
2022-09-11T00:52:20.859Z,50.90
2022-09-11T00:54:51.817Z,50.89
2022-09-11T00:57:22.868Z,50.88
2022-09-11T00:59:51.477Z,50.90
2022-09-11T01:02:23.258Z,50.89
2022-09-11T01:04:54.573Z,50.88
2022-09-11T01:07:22.974Z,50.91
2022-09-11T01:09:50.324Z,50.92
2022-09-11T01:12:26.135Z,50.90
2022-09-11T01:15:00.328Z,50.89
2022-09-11T01:17:49.520Z,50.90
2022-09-11T01:20:33.445Z,50.92
2022-09-11T01:23:33.682Z,50.91
2022-09-11T01:26:33.452Z,50.92
2022-09-11T01:29:06.489Z,50.92
2022-09-11T01:31:44.443Z,50.94
2022-09-11T01:34:20.865Z,50.92
2022-09-11T01:36:55.908Z,50.92
2022-09-11T01:39:26.012Z,50.92
2022-09-11T01:41:59.247Z,50.92
2022-09-11T01:44:50.733Z,50.94
2022-09-11T01:47:19.836Z,50.92
2022-09-11T01:49:55.684Z,50.90
2022-09-11T01:52:27.043Z,50.90
2022-09-11T01:54:57.732Z,50.91
2022-09-11T01:57:42.117Z,50.91
2022-09-11T02:00:11.226Z,50.91
2022-09-11T02:02:42.460Z,50.91
2022-09-11T02:05:43.697Z,50.94
2022-09-11T02:08:36.860Z,50.94
2022-09-11T02:11:08.032Z,50.90
2022-09-11T02:13:59.528Z,50.95
2022-09-11T02:16:42.236Z,50.94
2022-09-11T02:19:12.394Z,50.97
2022-09-11T02:21:39.315Z,50.94
2022-09-11T02:24:06.182Z,50.95
2022-09-11T02:26:37.130Z,50.94
2022-09-11T02:29:03.617Z,50.93
2022-09-11T02:31:30.311Z,50.94
2022-09-11T02:33:56.719Z,50.97
2022-09-11T02:36:26.113Z,50.96
2022-09-11T02:38:52.452Z,50.95
2022-09-11T02:41:27.258Z,50.93
2022-09-11T02:44:11.956Z,50.96
2022-09-11T02:47:03.132Z,50.80
2022-09-11T02:49:54.240Z,50.62
2022-09-11T02:52:26.318Z,50.61
2022-09-11T02:54:52.674Z,50.59
2022-09-11T02:57:34.222Z,50.61
2022-09-11T03:00:03.718Z,50.59
2022-09-11T03:02:32.756Z,50.60
2022-09-11T03:04:59.178Z,50.60
2022-09-11T03:07:26.018Z,50.59
2022-09-11T03:09:52.907Z,50.60
2022-09-11T03:12:19.356Z,50.60
2022-09-11T03:14:45.759Z,50.60
2022-09-11T03:17:12.159Z,50.60
2022-09-11T03:19:38.623Z,50.59
2022-09-11T03:22:05.084Z,50.61
2022-09-11T03:24:31.443Z,50.60
2022-09-11T03:26:57.812Z,50.60
2022-09-11T03:29:24.214Z,50.61
2022-09-11T03:31:50.611Z,50.62
2022-09-11T03:34:17.076Z,50.60
2022-09-11T03:36:44.047Z,50.63
2022-09-11T03:39:10.598Z,50.62
2022-09-11T03:41:36.972Z,50.63
2022-09-11T03:44:03.481Z,50.64
2022-09-11T03:46:29.894Z,50.63
2022-09-11T03:48:56.407Z,50.66
2022-09-11T03:51:22.794Z,50.63
2022-09-11T03:53:49.285Z,50.66
2022-09-11T03:56:15.853Z,50.68
2022-09-11T03:58:42.288Z,50.69
2022-09-11T04:01:14.374Z,50.70
2022-09-11T04:03:41.916Z,50.68
2022-09-11T04:06:08.607Z,50.68
2022-09-11T04:08:35.085Z,50.70
2022-09-11T04:11:04.273Z,50.72
2022-09-11T04:13:33.270Z,50.70
2022-09-11T04:16:05.976Z,50.70
2022-09-11T04:18:35.163Z,50.69
2022-09-11T04:21:05.984Z,50.70
2022-09-11T04:23:32.734Z,50.68
2022-09-11T04:25:59.117Z,50.69
2022-09-11T04:28:27.308Z,50.69
2022-09-11T04:30:53.684Z,50.66
2022-09-11T04:33:20.023Z,50.65
2022-09-11T04:35:46.445Z,50.67
2022-09-11T04:38:12.779Z,50.68
2022-09-11T04:40:39.115Z,50.66
2022-09-11T04:43:05.559Z,50.67
2022-09-11T04:45:32.007Z,50.67
2022-09-11T04:47:58.842Z,50.68
2022-09-11T04:50:25.267Z,50.69
2022-09-11T04:52:51.605Z,50.69
2022-09-11T04:55:18.002Z,50.68
2022-09-11T04:57:44.446Z,50.69
2022-09-11T05:00:11.402Z,50.69
2022-09-11T05:02:37.765Z,50.70
2022-09-11T05:05:04.590Z,50.69
2022-09-11T05:07:30.980Z,50.70
2022-09-11T05:09:57.463Z,50.72
2022-09-11T05:12:23.823Z,50.72
2022-09-11T05:14:50.216Z,50.73
2022-09-11T05:17:16.572Z,50.73
2022-09-11T05:19:43.000Z,50.75
2022-09-11T05:22:09.343Z,50.76
2022-09-11T05:24:35.751Z,50.77
2022-09-11T05:27:02.147Z,50.77
2022-09-11T05:29:32.257Z,50.80
2022-09-11T05:31:59.184Z,50.82
2022-09-11T05:34:26.597Z,50.85
2022-09-11T05:36:52.962Z,50.86
2022-09-11T05:39:19.340Z,50.85
2022-09-11T05:41:45.693Z,50.85
2022-09-11T05:44:12.034Z,50.89
2022-09-11T05:46:38.369Z,50.90
2022-09-11T05:49:04.729Z,50.94
2022-09-11T05:51:31.085Z,50.96
2022-09-11T05:53:57.490Z,50.98
2022-09-11T05:56:25.345Z,50.98
2022-09-11T05:58:52.000Z,50.98
2022-09-11T06:01:20.685Z,50.91
2022-09-11T06:03:47.144Z,50.83
2022-09-11T06:06:13.565Z,50.86
2022-09-11T06:08:41.289Z,50.88
2022-09-11T06:11:07.814Z,51.06
2022-09-11T06:13:40.191Z,51.37
2022-09-11T06:16:18.415Z,51.47
2022-09-11T06:18:46.571Z,51.61
2022-09-11T06:21:13.371Z,51.67
2022-09-11T06:23:39.987Z,51.68
2022-09-11T06:26:17.264Z,51.68
2022-09-11T06:28:43.692Z,51.65
2022-09-11T06:31:12.802Z,51.67
2022-09-11T06:33:41.230Z,51.74
2022-09-11T06:36:11.223Z,51.79
2022-09-11T06:38:37.751Z,51.70
2022-09-11T06:41:06.671Z,51.53
2022-09-11T06:43:33.363Z,51.29
2022-09-11T06:46:07.734Z,50.96
2022-09-11T06:48:34.201Z,50.84
2022-09-11T06:51:04.533Z,50.85
2022-09-11T06:53:30.937Z,50.87
2022-09-11T06:56:02.139Z,50.93
2022-09-11T06:58:29.046Z,50.97
2022-09-11T07:01:06.077Z,51.08
2022-09-11T07:03:33.074Z,51.12
2022-09-11T07:06:00.558Z,51.20
2022-09-11T07:08:27.481Z,55.16
2022-09-11T07:10:54.325Z,100.00
2022-09-11T07:13:21.211Z,100.00
2022-09-11T07:15:47.594Z,100.00
2022-09-11T07:18:13.941Z,100.00
2022-09-11T07:20:41.144Z,100.00
2022-09-11T07:23:08.438Z,100.00
2022-09-11T07:25:37.007Z,100.00
2022-09-11T07:28:03.586Z,100.00
2022-09-11T07:30:30.044Z,100.00
2022-09-11T07:32:56.503Z,100.00
2022-09-11T07:35:22.971Z,100.00
2022-09-11T07:37:50.964Z,100.00
2022-09-11T07:40:17.667Z,100.00
2022-09-11T07:42:44.305Z,100.00
2022-09-11T07:45:13.422Z,100.00
2022-09-11T07:47:50.259Z,100.00
2022-09-11T07:50:18.020Z,100.00
2022-09-11T07:52:44.429Z,100.00
2022-09-11T07:55:10.954Z,100.00
2022-09-11T07:57:37.421Z,100.00
2022-09-11T08:00:04.366Z,100.00
2022-09-11T08:02:30.770Z,100.00
2022-09-11T08:04:57.249Z,100.00
2022-09-11T08:07:23.645Z,100.00
2022-09-11T08:10:04.357Z,100.00
2022-09-11T08:12:36.553Z,100.00
2022-09-11T08:15:02.992Z,100.00
2022-09-11T08:17:29.342Z,100.00
2022-09-11T08:19:55.812Z,100.00
2022-09-11T08:22:22.280Z,100.00
2022-09-11T08:24:48.629Z,100.00
2022-09-11T08:27:15.087Z,100.00
2022-09-11T08:29:41.413Z,100.00
2022-09-11T08:32:07.769Z,100.00
2022-09-11T08:34:34.411Z,100.00
2022-09-11T08:37:00.816Z,100.00
2022-09-11T08:39:27.211Z,100.00
2022-09-11T08:42:02.053Z,100.00
2022-09-11T08:44:39.203Z,100.00
2022-09-11T08:47:10.213Z,100.00
2022-09-11T08:49:41.411Z,100.00
2022-09-11T08:52:14.137Z,100.00
2022-09-11T08:54:42.157Z,100.00
2022-09-11T08:57:20.382Z,100.00
2022-09-11T09:00:15.375Z,100.00
2022-09-11T09:03:09.898Z,100.00
2022-09-11T09:05:56.727Z,96.66
2022-09-11T09:08:41.821Z,95.04
2022-09-11T09:11:46.768Z,92.63
2022-09-11T09:14:38.272Z,85.73
2022-09-11T09:17:07.474Z,82.54
2022-09-11T09:19:52.249Z,80.09
2022-09-11T09:22:28.213Z,83.47
2022-09-11T09:24:59.050Z,95.56
2022-09-11T09:27:33.619Z,100.00
2022-09-11T09:30:04.164Z,100.00
2022-09-11T09:32:34.973Z,100.00
2022-09-11T09:35:11.469Z,94.59
2022-09-11T09:37:38.938Z,95.05
2022-09-11T09:40:08.966Z,89.63
2022-09-11T09:42:57.631Z,96.88
2022-09-11T09:45:52.409Z,88.33
2022-09-11T09:48:18.938Z,89.81
2022-09-11T09:50:45.575Z,100.00
2022-09-11T09:53:21.410Z,100.00
2022-09-11T09:55:48.970Z,100.00
2022-09-11T09:58:15.368Z,100.00
2022-09-11T10:00:42.117Z,100.00
2022-09-11T10:03:20.161Z,100.00
2022-09-11T10:05:48.717Z,100.00
2022-09-11T10:08:24.166Z,100.00
2022-09-11T10:11:01.400Z,100.00
2022-09-11T10:13:31.297Z,100.00
2022-09-11T10:16:03.827Z,100.00
2022-09-11T10:18:30.212Z,100.00
2022-09-11T10:21:11.782Z,100.00
2022-09-11T10:23:54.687Z,100.00
2022-09-11T10:26:42.719Z,100.00
2022-09-11T10:29:11.828Z,100.00
2022-09-11T10:31:49.632Z,100.00
2022-09-11T10:34:18.900Z,100.00
2022-09-11T10:37:11.625Z,100.00
2022-09-11T10:39:38.478Z,97.01
2022-09-11T10:42:16.635Z,90.37
2022-09-11T10:44:45.534Z,94.01
2022-09-11T10:47:21.124Z,99.69
2022-09-11T10:49:48.240Z,100.00
2022-09-11T10:52:14.647Z,100.00
2022-09-11T10:54:47.163Z,97.09
2022-09-11T10:57:13.535Z,97.30
2022-09-11T10:59:59.746Z,93.23
2022-09-11T11:02:31.168Z,94.59
2022-09-11T11:05:03.377Z,88.85
2022-09-11T11:07:38.734Z,87.98
2022-09-11T11:10:36.213Z,95.92
2022-09-11T11:13:30.501Z,100.00
2022-09-11T11:16:21.824Z,100.00
2022-09-11T11:18:56.603Z,98.57
2022-09-11T11:21:32.308Z,97.83
2022-09-11T11:24:37.207Z,95.59
2022-09-11T11:27:37.246Z,90.86
2022-09-11T11:30:11.188Z,93.17
2022-09-11T11:33:10.133Z,93.40
2022-09-11T11:35:45.826Z,89.61
2022-09-11T11:38:22.080Z,90.71
2022-09-11T11:40:54.456Z,96.54
2022-09-11T11:43:27.466Z,100.00
2022-09-11T11:45:53.859Z,100.00
2022-09-11T11:48:46.852Z,100.00
2022-09-11T11:51:19.158Z,100.00
2022-09-11T11:53:59.506Z,100.00
2022-09-11T11:56:31.837Z,100.00
2022-09-11T11:58:58.236Z,100.00
2022-09-11T12:01:32.603Z,100.00
2022-09-11T12:04:16.007Z,100.00
2022-09-11T12:06:42.522Z,100.00
2022-09-11T12:09:09.413Z,100.00
2022-09-11T12:11:36.151Z,100.00
2022-09-11T12:14:02.929Z,100.00
2022-09-11T12:16:33.868Z,100.00
2022-09-11T12:19:04.957Z,100.00
2022-09-11T12:21:31.306Z,100.00
2022-09-11T12:23:57.627Z,100.00
2022-09-11T12:26:25.396Z,100.00
2022-09-11T12:29:10.538Z,100.00
2022-09-11T12:32:18.715Z,100.00
2022-09-11T12:34:45.086Z,100.00
2022-09-11T12:37:19.623Z,100.00
2022-09-11T12:40:01.888Z,100.00
2022-09-11T12:42:31.349Z,100.00
2022-09-11T12:44:58.564Z,100.00
2022-09-11T12:47:37.333Z,100.00
2022-09-11T12:50:15.037Z,100.00
2022-09-11T12:52:50.460Z,100.00
2022-09-11T12:55:31.365Z,100.00
2022-09-11T12:58:02.540Z,100.00
2022-09-11T13:00:41.840Z,100.00
2022-09-11T13:03:19.344Z,100.00
2022-09-11T13:05:55.349Z,100.00
2022-09-11T13:08:26.221Z,100.00
2022-09-11T13:10:52.670Z,100.00
2022-09-11T13:13:34.496Z,100.00
2022-09-11T13:16:19.488Z,100.00
2022-09-11T13:18:46.228Z,100.00
2022-09-11T13:21:15.667Z,100.00
2022-09-11T13:23:42.174Z,100.00
2022-09-11T13:26:15.347Z,100.00
2022-09-11T13:28:49.218Z,100.00
2022-09-11T13:31:24.964Z,100.00
2022-09-11T13:33:52.532Z,100.00
2022-09-11T13:36:24.688Z,100.00
2022-09-11T13:38:57.994Z,100.00
2022-09-11T13:41:29.023Z,100.00
2022-09-11T13:43:58.628Z,100.00
2022-09-11T13:46:26.073Z,100.00
2022-09-11T13:49:19.820Z,100.00
2022-09-11T13:51:47.808Z,100.00
2022-09-11T13:54:18.250Z,100.00
2022-09-11T13:56:46.115Z,100.00
2022-09-11T13:59:43.484Z,100.00
2022-09-11T14:02:27.328Z,100.00
2022-09-11T14:05:02.043Z,100.00
2022-09-11T14:07:28.668Z,100.00
2022-09-11T14:10:07.727Z,100.00
2022-09-11T14:12:46.549Z,100.00
2022-09-11T14:15:21.809Z,100.00
2022-09-11T14:17:48.575Z,100.00
2022-09-11T14:20:18.981Z,100.00
2022-09-11T14:22:46.183Z,100.00
2022-09-11T14:25:21.287Z,100.00
2022-09-11T14:27:48.175Z,100.00
2022-09-11T14:30:25.331Z,100.00
2022-09-11T14:33:13.178Z,100.00
2022-09-11T14:35:39.919Z,100.00
2022-09-11T14:38:06.510Z,100.00
2022-09-11T14:40:32.861Z,100.00
2022-09-11T14:42:59.339Z,100.00
2022-09-11T14:45:25.702Z,100.00
2022-09-11T14:47:52.867Z,100.00
2022-09-11T14:50:19.302Z,100.00
2022-09-11T14:52:45.763Z,100.00
2022-09-11T14:55:19.714Z,100.00
2022-09-11T14:57:46.512Z,100.00
2022-09-11T15:00:18.563Z,100.00
2022-09-11T15:02:45.354Z,100.00
2022-09-11T15:05:16.302Z,100.00
2022-09-11T15:07:43.243Z,100.00
2022-09-11T15:10:10.860Z,100.00
2022-09-11T15:12:37.250Z,100.00
2022-09-11T15:15:04.699Z,100.00
2022-09-11T15:17:31.415Z,100.00
2022-09-11T15:19:58.416Z,100.00
2022-09-11T15:22:25.225Z,100.00
2022-09-11T15:24:51.709Z,100.00
2022-09-11T15:27:18.262Z,100.00
2022-09-11T15:29:45.341Z,100.00
2022-09-11T15:32:12.309Z,100.00
2022-09-11T15:34:38.842Z,100.00
2022-09-11T15:37:06.232Z,100.00
2022-09-11T15:39:32.866Z,100.00
2022-09-11T15:41:59.462Z,100.00
2022-09-11T15:44:27.429Z,100.00
2022-09-11T15:46:55.105Z,100.00
2022-09-11T15:49:22.560Z,100.00
2022-09-11T15:51:50.155Z,100.00
2022-09-11T15:54:17.364Z,100.00
2022-09-11T15:56:44.113Z,100.00
2022-09-11T15:59:12.035Z,100.00
2022-09-11T16:01:38.860Z,100.00
2022-09-11T16:04:11.425Z,100.00
2022-09-11T16:06:40.785Z,100.00
2022-09-11T16:09:12.565Z,100.00
2022-09-11T16:11:39.837Z,100.00
2022-09-11T16:14:07.274Z,100.00
2022-09-11T16:16:34.227Z,100.00
2022-09-11T16:19:00.892Z,100.00
2022-09-11T16:21:28.318Z,100.00
2022-09-11T16:24:00.739Z,100.00
2022-09-11T16:26:28.006Z,100.00
2022-09-11T16:28:54.659Z,100.00
2022-09-11T16:31:21.073Z,100.00
2022-09-11T16:33:51.809Z,100.00
2022-09-11T16:36:20.885Z,100.00
2022-09-11T16:38:49.842Z,100.00
2022-09-11T16:41:21.859Z,100.00
2022-09-11T16:43:52.133Z,100.00
2022-09-11T16:46:24.559Z,100.00
2022-09-11T16:48:54.472Z,100.00
2022-09-11T16:51:22.503Z,100.00
2022-09-11T16:53:49.728Z,100.00
2022-09-11T16:56:19.437Z,100.00
2022-09-11T16:58:46.191Z,100.00
2022-09-11T17:01:15.333Z,100.00
2022-09-11T17:03:43.498Z,100.00
2022-09-11T17:06:10.423Z,100.00
2022-09-11T17:08:37.654Z,100.00
2022-09-11T17:11:04.127Z,100.00
2022-09-11T17:13:30.474Z,100.00
2022-09-11T17:16:16.210Z,100.00
2022-09-11T17:18:52.089Z,100.00
2022-09-11T17:21:18.498Z,100.00
2022-09-11T17:23:45.064Z,100.00
2022-09-11T17:26:13.357Z,100.00
2022-09-11T17:28:40.295Z,100.00
2022-09-11T17:31:08.989Z,100.00
2022-09-11T17:33:38.190Z,100.00
2022-09-11T17:36:06.358Z,83.15
2022-09-11T17:38:35.271Z,58.67
2022-09-11T17:41:04.804Z,53.02
2022-09-11T17:43:32.117Z,51.75
2022-09-11T17:46:10.491Z,51.96
2022-09-11T17:48:38.511Z,52.34
2022-09-11T17:51:25.215Z,54.10
2022-09-11T17:53:54.882Z,64.79
2022-09-11T17:56:23.902Z,100.00
2022-09-11T17:58:56.545Z,100.00
2022-09-11T18:01:24.603Z,100.00
2022-09-11T18:03:56.669Z,100.00
2022-09-11T18:06:27.740Z,100.00
2022-09-11T18:08:57.275Z,100.00
2022-09-11T18:11:24.150Z,100.00
2022-09-11T18:13:50.568Z,100.00
2022-09-11T18:16:17.109Z,100.00
2022-09-11T18:18:43.575Z,100.00
2022-09-11T18:21:11.509Z,100.00
2022-09-11T18:23:42.417Z,64.08
2022-09-11T18:26:13.961Z,54.81
2022-09-11T18:28:40.326Z,52.34
2022-09-11T18:31:07.012Z,51.74
2022-09-11T18:33:33.621Z,51.47
2022-09-11T18:36:05.475Z,51.29
2022-09-11T18:38:33.199Z,51.12
2022-09-11T18:41:00.235Z,51.01
2022-09-11T18:43:28.133Z,50.92
2022-09-11T18:45:55.147Z,50.87
2022-09-11T18:48:21.602Z,50.83
2022-09-11T18:50:48.058Z,50.79
2022-09-11T18:53:14.508Z,50.78
2022-09-11T18:55:40.901Z,50.77
2022-09-11T18:58:07.345Z,50.78
2022-09-11T19:00:33.915Z,50.76
2022-09-11T19:03:00.487Z,50.76
2022-09-11T19:05:26.850Z,50.74
2022-09-11T19:07:53.284Z,50.75
2022-09-11T19:10:19.638Z,50.73
2022-09-11T19:12:48.283Z,50.74
2022-09-11T19:15:14.702Z,50.74
2022-09-11T19:17:42.061Z,50.73
2022-09-11T19:20:09.408Z,50.72
2022-09-11T19:22:35.890Z,50.71
2022-09-11T19:25:02.306Z,50.71
2022-09-11T19:27:28.870Z,50.71
2022-09-11T19:29:55.215Z,50.70
2022-09-11T19:32:21.625Z,50.70
2022-09-11T19:34:48.061Z,50.68
2022-09-11T19:37:14.482Z,50.69
2022-09-11T19:39:40.946Z,50.68
2022-09-11T19:42:07.337Z,50.68
2022-09-11T19:44:33.747Z,50.66
2022-09-11T19:47:01.966Z,50.65
2022-09-11T19:49:28.840Z,50.65
2022-09-11T19:51:57.196Z,50.67
2022-09-11T19:54:24.235Z,50.65
2022-09-11T19:56:52.304Z,50.65
2022-09-11T19:59:18.822Z,50.61
2022-09-11T20:01:45.507Z,50.60
2022-09-11T20:04:12.105Z,50.60
2022-09-11T20:06:38.534Z,50.60
2022-09-11T20:11:52.390Z,50.58
2022-09-11T20:14:18.980Z,50.58
2022-09-11T20:16:45.614Z,50.58
2022-09-11T20:19:12.152Z,50.57
2022-09-11T20:21:38.572Z,50.57
2022-09-11T20:24:05.584Z,50.55
2022-09-11T20:26:32.185Z,50.56
2022-09-11T20:29:02.672Z,50.55
2022-09-11T20:31:31.570Z,50.53
2022-09-11T20:34:00.698Z,50.54
2022-09-11T20:36:27.866Z,50.51
2022-09-11T20:38:56.387Z,50.52
2022-09-11T20:41:23.067Z,50.52
2022-09-11T20:43:50.085Z,50.52
2022-09-11T20:46:16.548Z,50.51
2022-09-11T20:48:42.970Z,50.50
2022-09-11T20:51:12.152Z,50.50
2022-09-11T20:53:40.414Z,50.54
2022-09-11T20:56:09.339Z,50.54
2022-09-11T20:58:36.692Z,50.54
2022-09-11T21:01:04.027Z,50.54
2022-09-11T21:03:31.421Z,50.54
2022-09-11T21:06:04.808Z,50.54
2022-09-11T21:08:31.171Z,50.54
2022-09-11T21:11:01.922Z,50.53
2022-09-11T21:13:28.508Z,50.54
2022-09-11T21:15:54.945Z,50.54
2022-09-11T21:18:21.342Z,50.54
2022-09-11T21:20:55.444Z,50.53
2022-09-11T21:23:23.495Z,50.53
2022-09-11T21:25:52.688Z,50.54
2022-09-11T21:28:19.462Z,50.54
2022-09-11T21:30:45.826Z,50.52
2022-09-11T21:33:12.362Z,50.52
2022-09-11T21:35:38.760Z,50.52
2022-09-11T21:38:05.306Z,50.51
2022-09-11T21:40:31.744Z,50.51
2022-09-11T21:42:58.268Z,50.52
2022-09-11T21:45:24.826Z,50.51
2022-09-11T21:47:51.212Z,50.51
2022-09-11T21:50:19.332Z,50.51
2022-09-11T21:52:47.884Z,50.50
2022-09-11T21:55:15.486Z,50.51
2022-09-11T21:57:42.237Z,50.50
2022-09-11T22:00:11.954Z,50.50
2022-09-11T22:02:41.071Z,50.51
2022-09-11T22:05:07.772Z,50.50
2022-09-11T22:07:34.226Z,50.50
2022-09-11T22:10:00.572Z,50.49
2022-09-11T22:12:26.949Z,50.49
2022-09-11T22:14:53.406Z,50.48
2022-09-11T22:17:19.843Z,50.49
2022-09-11T22:19:46.244Z,50.49
2022-09-11T22:22:13.721Z,50.49
2022-09-11T22:24:45.908Z,50.48
2022-09-11T22:27:14.591Z,50.50
2022-09-11T22:29:43.986Z,50.48
2022-09-11T22:32:15.791Z,50.49
2022-09-11T22:34:42.240Z,50.48
2022-09-11T22:37:09.714Z,50.48
2022-09-11T22:39:36.341Z,50.47
2022-09-11T22:42:05.306Z,50.47
2022-09-11T22:44:33.016Z,50.47
2022-09-11T22:47:00.519Z,50.47
2022-09-11T22:49:29.698Z,50.47
2022-09-11T22:51:56.172Z,50.46
2022-09-11T22:54:23.872Z,50.45
2022-09-11T22:56:50.412Z,50.45
2022-09-11T22:59:16.933Z,50.47
2022-09-11T23:01:44.628Z,50.46
2022-09-11T23:04:11.257Z,50.45
2022-09-11T23:06:37.728Z,50.45
2022-09-11T23:09:05.486Z,50.45
2022-09-11T23:11:31.961Z,50.45
2022-09-11T23:13:58.368Z,50.45
2022-09-11T23:16:27.845Z,50.44
2022-09-11T23:19:02.927Z,50.44
2022-09-11T23:21:30.800Z,50.43
2022-09-11T23:23:58.364Z,50.45
2022-09-11T23:26:26.277Z,50.43
2022-09-11T23:28:53.098Z,50.43
2022-09-11T23:31:22.584Z,50.44
2022-09-11T23:33:48.987Z,50.43
2022-09-11T23:36:15.970Z,50.43
2022-09-11T23:38:47.111Z,50.45
2022-09-11T23:41:15.010Z,50.43
2022-09-11T23:43:41.916Z,50.42
2022-09-11T23:46:08.644Z,50.43
2022-09-11T23:48:35.990Z,50.41
2022-09-11T23:51:02.530Z,50.43
2022-09-11T23:53:29.807Z,50.42
2022-09-11T23:55:57.279Z,50.42
2022-09-11T23:58:24.556Z,50.42
